createdAt,value
2023-01-27T00:00:52.147Z,38.00
2023-01-27T00:03:20.455Z,38.00
2023-01-27T00:05:48.028Z,38.00
2023-01-27T00:08:15.692Z,38.00
2023-01-27T00:10:43.335Z,38.00
2023-01-27T00:13:32.190Z,38.00
2023-01-27T00:15:59.645Z,38.00
2023-01-27T00:18:26.979Z,38.00
2023-01-27T00:21:13.952Z,38.00
2023-01-27T00:24:00.934Z,37.90
2023-01-27T00:26:28.040Z,37.90
2023-01-27T00:28:55.104Z,37.90
2023-01-27T00:31:42.110Z,37.90
2023-01-27T00:34:09.605Z,37.90
2023-01-27T00:36:39.076Z,37.90
2023-01-27T00:39:07.902Z,37.90
2023-01-27T00:41:35.296Z,37.90
2023-01-27T00:44:02.798Z,37.90
2023-01-27T00:46:30.216Z,37.90
2023-01-27T00:48:57.288Z,37.90
2023-01-27T00:51:24.765Z,37.90
2023-01-27T00:53:51.890Z,37.90
2023-01-27T00:56:19.462Z,37.90
2023-01-27T00:58:46.826Z,37.90
2023-01-27T01:01:16.078Z,37.90
2023-01-27T01:03:44.092Z,37.90
2023-01-27T01:06:13.893Z,37.90
2023-01-27T01:08:41.323Z,37.90
2023-01-27T01:11:11.085Z,37.90
2023-01-27T01:13:38.179Z,37.90
2023-01-27T01:16:11.772Z,37.90
2023-01-27T01:18:39.326Z,37.90
2023-01-27T01:21:07.197Z,37.90
2023-01-27T01:23:35.311Z,37.90
2023-01-27T01:26:02.377Z,37.80
2023-01-27T01:28:29.530Z,37.80
2023-01-27T01:30:56.747Z,37.80
2023-01-27T01:33:23.896Z,37.80
2023-01-27T01:35:50.979Z,37.80
2023-01-27T01:38:18.107Z,37.80
2023-01-27T01:40:45.657Z,37.80
2023-01-27T01:43:16.996Z,37.80
2023-01-27T01:45:54.681Z,37.80
2023-01-27T01:48:36.550Z,37.70
2023-01-27T01:51:21.572Z,37.80
2023-01-27T01:53:57.735Z,37.80
2023-01-27T01:56:31.185Z,37.80
2023-01-27T01:59:04.138Z,37.80
2023-01-27T02:01:31.325Z,37.70
2023-01-27T02:04:04.196Z,37.70
2023-01-27T02:06:40.132Z,37.80
2023-01-27T02:09:07.898Z,37.80
2023-01-27T02:11:34.960Z,37.70
2023-01-27T02:14:03.235Z,37.70
2023-01-27T02:16:31.387Z,37.70
2023-01-27T02:18:58.569Z,37.70
2023-01-27T02:21:26.265Z,37.70
2023-01-27T02:24:11.015Z,37.70
2023-01-27T02:26:43.578Z,37.80
2023-01-27T02:29:13.580Z,37.80
2023-01-27T02:31:41.061Z,37.80
2023-01-27T02:34:18.372Z,37.80
2023-01-27T02:36:51.316Z,37.80
2023-01-27T02:39:22.337Z,37.80
2023-01-27T02:41:53.436Z,37.80
2023-01-27T02:44:20.566Z,37.80
2023-01-27T02:46:47.642Z,37.70
2023-01-27T02:49:15.369Z,37.80
2023-01-27T02:51:42.761Z,37.80
2023-01-27T02:54:09.878Z,37.70
2023-01-27T02:56:36.922Z,37.80
2023-01-27T02:59:04.017Z,37.70
2023-01-27T03:01:32.830Z,37.70
2023-01-27T03:04:00.265Z,37.70
2023-01-27T03:06:27.452Z,37.80
2023-01-27T03:08:54.635Z,37.80
2023-01-27T03:11:41.552Z,37.70
2023-01-27T03:14:09.271Z,37.70
2023-01-27T03:16:56.507Z,37.80
2023-01-27T03:19:23.623Z,37.70
2023-01-27T03:21:51.362Z,37.70
2023-01-27T03:24:18.814Z,37.70
2023-01-27T03:26:46.501Z,37.70
2023-01-27T03:29:33.466Z,37.80
2023-01-27T03:32:00.498Z,37.80
2023-01-27T03:34:27.581Z,37.80
2023-01-27T03:37:14.507Z,37.70
2023-01-27T03:40:01.577Z,37.70
2023-01-27T03:42:48.490Z,37.70
2023-01-27T03:45:35.514Z,37.70
2023-01-27T03:48:02.564Z,37.60
2023-01-27T03:50:38.055Z,37.60
2023-01-27T03:53:06.079Z,37.60
2023-01-27T03:55:34.853Z,37.60
2023-01-27T03:58:14.804Z,37.60
2023-01-27T04:00:41.954Z,37.60
2023-01-27T04:03:28.913Z,37.60
2023-01-27T04:06:16.023Z,37.60
2023-01-27T04:08:43.797Z,37.70
2023-01-27T04:11:31.917Z,37.60
2023-01-27T04:14:02.230Z,37.60
2023-01-27T04:16:30.393Z,37.60
2023-01-27T04:18:58.088Z,37.60
2023-01-27T04:21:25.931Z,37.60
2023-01-27T04:23:53.945Z,37.60
2023-01-27T04:26:21.583Z,37.60
2023-01-27T04:28:49.557Z,37.60
2023-01-27T04:31:17.734Z,37.60
2023-01-27T04:33:45.609Z,37.60
2023-01-27T04:36:13.159Z,37.60
2023-01-27T04:38:40.267Z,37.60
2023-01-27T04:41:07.444Z,37.60
2023-01-27T04:43:34.574Z,37.60
2023-01-27T04:46:01.842Z,37.60
2023-01-27T04:48:29.205Z,37.60
2023-01-27T04:50:56.286Z,37.60
2023-01-27T04:53:23.458Z,37.60
2023-01-27T04:55:50.752Z,37.60
2023-01-27T04:58:18.513Z,37.60
2023-01-27T05:00:45.956Z,37.60
2023-01-27T05:03:13.163Z,37.60
2023-01-27T05:05:40.377Z,37.60
2023-01-27T05:08:10.403Z,37.60
2023-01-27T05:10:37.935Z,37.50
2023-01-27T05:13:05.075Z,37.60
2023-01-27T05:15:32.243Z,37.60
2023-01-27T05:17:59.421Z,37.60
2023-01-27T05:20:26.546Z,37.60
2023-01-27T05:23:13.483Z,37.60
2023-01-27T05:25:45.213Z,37.60
2023-01-27T05:28:12.564Z,37.60
2023-01-27T05:30:39.816Z,37.50
2023-01-27T05:33:08.568Z,37.50
2023-01-27T05:35:35.696Z,37.50
2023-01-27T05:38:02.769Z,37.40
2023-01-27T05:40:30.003Z,37.20
2023-01-27T05:42:57.207Z,37.10
2023-01-27T05:45:24.283Z,37.10
2023-01-27T05:47:51.781Z,37.10
2023-01-27T05:50:19.096Z,37.10
2023-01-27T05:52:46.633Z,37.10
2023-01-27T05:55:14.054Z,37.10
2023-01-27T05:57:41.413Z,37.10
2023-01-27T06:00:09.205Z,37.20
2023-01-27T06:02:36.302Z,37.20
2023-01-27T06:05:03.387Z,37.20
2023-01-27T06:07:30.454Z,37.20
2023-01-27T06:09:57.730Z,37.20
2023-01-27T06:12:24.801Z,37.10
2023-01-27T06:14:51.932Z,37.10
2023-01-27T06:17:19.187Z,37.00
2023-01-27T06:19:46.257Z,37.00
2023-01-27T06:22:13.452Z,37.00
2023-01-27T06:24:40.548Z,37.00
2023-01-27T06:27:07.656Z,36.90
2023-01-27T06:29:34.836Z,36.90
2023-01-27T06:32:02.101Z,36.90
2023-01-27T06:34:30.300Z,36.90
2023-01-27T06:36:57.437Z,36.90
2023-01-27T06:39:24.507Z,36.80
2023-01-27T06:41:51.634Z,36.80
2023-01-27T06:44:18.744Z,36.70
2023-01-27T06:46:46.807Z,36.70
2023-01-27T06:49:15.459Z,36.50
2023-01-27T06:51:42.732Z,36.60
2023-01-27T06:54:11.169Z,36.80
2023-01-27T06:56:38.225Z,36.90
2023-01-27T06:59:06.230Z,37.10
2023-01-27T07:01:33.309Z,37.20
2023-01-27T07:04:00.570Z,37.30
2023-01-27T07:06:27.810Z,37.30
2023-01-27T07:08:55.652Z,37.30
2023-01-27T07:11:24.179Z,37.30
2023-01-27T07:13:51.524Z,37.20
2023-01-27T07:16:18.698Z,37.10
2023-01-27T07:18:45.765Z,37.10
2023-01-27T07:21:13.333Z,37.20
2023-01-27T07:23:40.945Z,37.40
2023-01-27T07:26:23.275Z,37.50
2023-01-27T07:28:52.112Z,37.60
2023-01-27T07:31:19.488Z,37.50
2023-01-27T07:33:46.732Z,37.60
2023-01-27T07:36:13.991Z,37.60
2023-01-27T07:38:41.211Z,37.60
2023-01-27T07:41:08.379Z,37.60
2023-01-27T07:43:36.099Z,37.50
2023-01-27T07:46:03.538Z,37.30
2023-01-27T07:48:30.582Z,37.10
2023-01-27T07:50:58.187Z,36.90
2023-01-27T07:53:25.839Z,36.90
2023-01-27T07:55:53.672Z,36.80
2023-01-27T07:58:20.812Z,36.70
2023-01-27T08:00:47.936Z,36.80
2023-01-27T08:03:23.710Z,36.90
2023-01-27T08:05:51.477Z,37.10
2023-01-27T08:08:19.327Z,37.10
2023-01-27T08:10:49.394Z,37.10
2023-01-27T08:13:16.641Z,36.90
2023-01-27T08:15:43.890Z,36.90
2023-01-27T08:18:12.046Z,36.90
2023-01-27T08:20:39.698Z,36.90
2023-01-27T08:23:06.807Z,36.90
2023-01-27T08:25:33.926Z,36.90
2023-01-27T08:28:01.241Z,37.00
2023-01-27T08:30:29.294Z,37.00
2023-01-27T08:32:56.421Z,36.90
2023-01-27T08:35:23.533Z,36.90
2023-01-27T08:37:51.702Z,36.90
2023-01-27T08:40:19.299Z,36.60
2023-01-27T08:42:46.873Z,36.50
2023-01-27T08:45:14.193Z,36.30
2023-01-27T08:47:41.418Z,36.20
2023-01-27T08:50:09.867Z,36.20
2023-01-27T08:52:37.008Z,36.20
2023-01-27T08:55:04.481Z,36.20
2023-01-27T08:57:32.745Z,36.20
2023-01-27T09:00:00.362Z,36.20
2023-01-27T09:02:27.472Z,36.20
2023-01-27T09:04:54.575Z,36.20
2023-01-27T09:07:22.479Z,36.30
2023-01-27T09:09:51.349Z,36.30
2023-01-27T09:12:23.093Z,36.30
2023-01-27T09:14:50.253Z,36.30
2023-01-27T09:17:19.784Z,36.30
2023-01-27T09:19:47.572Z,36.30
2023-01-27T09:22:14.688Z,36.30
2023-01-27T09:24:41.758Z,36.20
2023-01-27T09:27:08.833Z,36.20
2023-01-27T09:29:36.875Z,36.10
2023-01-27T09:32:04.490Z,36.10
2023-01-27T09:34:31.635Z,36.10
2023-01-27T09:37:06.981Z,36.10
2023-01-27T09:39:41.610Z,36.10
2023-01-27T09:42:45.749Z,36.30
2023-01-27T09:45:31.820Z,36.40
2023-01-27T09:48:33.709Z,36.40
2023-01-27T09:51:26.407Z,36.20
2023-01-27T09:54:15.503Z,36.00
2023-01-27T09:57:12.851Z,35.80
2023-01-27T10:00:03.879Z,35.80
2023-01-27T10:03:03.923Z,35.70
2023-01-27T10:05:58.354Z,35.80
2023-01-27T10:08:58.490Z,36.10
2023-01-27T10:11:54.829Z,36.20
2023-01-27T10:14:59.156Z,36.20
2023-01-27T10:17:39.980Z,36.20
2023-01-27T10:20:39.607Z,35.90
2023-01-27T10:23:37.840Z,35.70
2023-01-27T10:26:32.012Z,35.50
2023-01-27T10:29:09.416Z,35.40
2023-01-27T10:32:01.834Z,35.30
2023-01-27T10:34:35.401Z,35.30
2023-01-27T10:37:37.291Z,35.20
2023-01-27T10:40:44.081Z,35.20
2023-01-27T10:43:39.892Z,35.10
2023-01-27T10:46:24.511Z,35.00
2023-01-27T10:49:07.833Z,32.10
2023-01-27T10:51:50.300Z,33.70
2023-01-27T10:54:34.533Z,34.10
2023-01-27T10:57:12.200Z,34.50
2023-01-27T11:00:21.941Z,34.40
2023-01-27T11:03:13.754Z,34.60
2023-01-27T11:05:47.431Z,34.60
2023-01-27T11:08:22.425Z,34.70
2023-01-27T11:11:14.143Z,34.70
2023-01-27T11:13:41.952Z,34.70
2023-01-27T11:16:19.811Z,34.70
2023-01-27T11:18:55.320Z,35.30
2023-01-27T11:21:28.279Z,34.80
2023-01-27T11:23:57.270Z,34.70
2023-01-27T11:26:48.791Z,34.80
2023-01-27T11:29:41.088Z,34.80
2023-01-27T11:32:19.034Z,34.90
2023-01-27T11:35:09.831Z,34.90
2023-01-27T11:37:49.547Z,34.90
2023-01-27T11:40:21.913Z,34.90
2023-01-27T11:42:51.635Z,34.80
2023-01-27T11:45:21.517Z,34.90
2023-01-27T11:47:55.160Z,34.90
2023-01-27T11:50:24.949Z,35.00
2023-01-27T11:53:03.680Z,35.00
2023-01-27T11:55:41.664Z,35.00
2023-01-27T11:58:26.018Z,35.00
2023-01-27T12:01:15.863Z,35.30
2023-01-27T12:04:19.580Z,35.40
2023-01-27T12:06:54.142Z,35.30
2023-01-27T12:09:36.657Z,35.30
2023-01-27T12:12:25.187Z,35.60
2023-01-27T12:14:58.181Z,35.60
2023-01-27T12:17:34.093Z,35.80
2023-01-27T12:20:26.919Z,35.70
2023-01-27T12:22:56.946Z,35.70
2023-01-27T12:25:28.360Z,35.70
2023-01-27T12:28:01.893Z,35.50
2023-01-27T12:30:39.248Z,35.50
2023-01-27T12:33:19.905Z,35.60
2023-01-27T12:35:49.738Z,35.50
2023-01-27T12:38:24.413Z,35.60
2023-01-27T12:41:00.162Z,35.50
2023-01-27T12:43:27.830Z,35.60
2023-01-27T12:46:20.231Z,35.60
2023-01-27T12:48:50.627Z,35.70
2023-01-27T12:51:23.671Z,35.70
2023-01-27T12:54:11.494Z,35.80
2023-01-27T12:56:39.644Z,35.70
2023-01-27T12:59:15.680Z,35.70
2023-01-27T13:01:45.183Z,35.60
2023-01-27T13:04:19.366Z,35.60
2023-01-27T13:06:54.491Z,35.40
2023-01-27T13:09:39.632Z,35.30
2023-01-27T13:12:30.845Z,35.10
2023-01-27T13:15:06.254Z,35.00
2023-01-27T13:17:50.536Z,35.00
2023-01-27T13:20:43.110Z,35.00
2023-01-27T13:23:22.213Z,35.00
2023-01-27T13:26:14.548Z,35.00
2023-01-27T13:29:16.224Z,34.90
2023-01-27T13:32:03.637Z,35.00
2023-01-27T13:34:45.951Z,35.10
2023-01-27T13:37:23.838Z,35.10
2023-01-27T13:40:17.273Z,35.20
2023-01-27T13:43:10.002Z,35.20
2023-01-27T13:46:07.024Z,35.40
2023-01-27T13:48:48.851Z,36.30
2023-01-27T13:51:22.261Z,35.90
2023-01-27T13:53:57.312Z,36.00
2023-01-27T13:56:50.273Z,36.10
2023-01-27T13:59:43.151Z,36.20
2023-01-27T14:02:39.206Z,36.40
2023-01-27T14:05:28.729Z,36.70
2023-01-27T14:08:21.880Z,36.70
2023-01-27T14:11:29.456Z,36.80
2023-01-27T14:14:17.903Z,37.10
2023-01-27T14:17:26.710Z,38.00
2023-01-27T14:20:18.684Z,38.90
2023-01-27T14:23:11.652Z,39.50
2023-01-27T14:26:07.936Z,39.60
2023-01-27T14:29:14.456Z,39.40
2023-01-27T14:31:58.296Z,39.10
2023-01-27T14:34:52.947Z,38.70
2023-01-27T14:37:35.779Z,38.20
2023-01-27T14:40:21.835Z,37.90
2023-01-27T14:43:28.584Z,38.20
2023-01-27T14:46:31.187Z,37.30
2023-01-27T14:49:24.168Z,37.10
2023-01-27T14:52:14.326Z,37.00
2023-01-27T14:55:21.110Z,36.80
2023-01-27T14:58:22.165Z,36.70
2023-01-27T15:01:26.672Z,36.60
2023-01-27T15:04:23.663Z,36.50
2023-01-27T15:07:15.102Z,36.70
2023-01-27T15:09:58.000Z,36.80
2023-01-27T15:13:03.315Z,36.90
2023-01-27T15:15:55.168Z,36.90
2023-01-27T15:18:51.493Z,36.90
2023-01-27T15:21:50.038Z,36.80
2023-01-27T15:24:33.818Z,36.70
2023-01-27T15:27:01.714Z,36.80
2023-01-27T15:29:31.411Z,36.70
2023-01-27T15:32:28.259Z,36.70
2023-01-27T15:35:36.251Z,36.70
2023-01-27T15:38:32.814Z,36.60
2023-01-27T15:41:04.962Z,36.70
2023-01-27T15:43:38.074Z,36.70
2023-01-27T15:46:30.348Z,36.70
2023-01-27T15:49:00.842Z,36.70
2023-01-27T15:51:31.856Z,36.70
2023-01-27T15:54:00.186Z,36.70
2023-01-27T15:56:53.223Z,36.80
2023-01-27T15:59:30.562Z,36.70
2023-01-27T16:02:19.063Z,36.80
2023-01-27T16:04:54.812Z,36.70
2023-01-27T16:07:30.480Z,36.70
2023-01-27T16:09:59.912Z,36.70
2023-01-27T16:12:40.842Z,36.70
2023-01-27T16:15:32.666Z,36.70
2023-01-27T16:18:22.091Z,36.60
2023-01-27T16:21:07.063Z,37.20
2023-01-27T16:23:55.323Z,36.70
2023-01-27T16:26:34.732Z,36.70
2023-01-27T16:29:28.780Z,36.70
2023-01-27T16:32:01.473Z,36.70
2023-01-27T16:34:46.922Z,36.70
2023-01-27T16:37:27.181Z,36.70
2023-01-27T16:40:16.125Z,36.70
2023-01-27T16:42:57.714Z,36.70
2023-01-27T16:45:28.590Z,36.80
2023-01-27T16:48:15.593Z,36.90
2023-01-27T16:50:43.934Z,37.00
2023-01-27T16:57:03.696Z,37.20
2023-01-27T16:59:34.250Z,36.90
2023-01-27T17:02:05.672Z,36.70
2023-01-27T17:04:33.086Z,36.70
2023-01-27T17:07:07.027Z,36.80
2023-01-27T17:09:41.183Z,36.80
2023-01-27T17:12:31.940Z,36.80
2023-01-27T17:14:59.963Z,36.90
2023-01-27T17:17:29.633Z,36.90
2023-01-27T17:20:02.716Z,36.90
2023-01-27T17:22:41.072Z,36.90
2023-01-27T17:25:30.172Z,37.40
2023-01-27T17:28:04.114Z,36.80
2023-01-27T17:30:39.581Z,36.80
2023-01-27T17:33:08.604Z,36.80
2023-01-27T17:35:41.052Z,36.80
2023-01-27T17:38:15.428Z,36.80
2023-01-27T17:40:44.965Z,36.70
2023-01-27T17:43:33.888Z,36.60
2023-01-27T17:46:14.730Z,36.60
2023-01-27T17:48:50.096Z,36.50
2023-01-27T17:51:24.633Z,36.50
2023-01-27T17:53:53.086Z,36.50
2023-01-27T17:56:24.589Z,36.50
2023-01-27T17:58:59.286Z,36.40
2023-01-27T18:01:26.764Z,36.40
2023-01-27T18:03:56.489Z,36.40
2023-01-27T18:06:26.582Z,36.40
2023-01-27T18:08:57.189Z,36.30
2023-01-27T18:11:31.381Z,36.30
2023-01-27T18:14:06.455Z,36.30
2023-01-27T18:16:33.698Z,36.20
2023-01-27T18:19:20.719Z,36.20
2023-01-27T18:21:48.355Z,36.70
2023-01-27T18:24:23.818Z,36.00
2023-01-27T18:26:51.100Z,36.00
2023-01-27T18:29:28.067Z,36.00
2023-01-27T18:32:17.246Z,35.90
2023-01-27T18:34:49.943Z,35.90
2023-01-27T18:37:26.590Z,35.90
2023-01-27T18:39:55.184Z,35.80
2023-01-27T18:42:27.713Z,35.80
2023-01-27T18:44:55.835Z,35.70
2023-01-27T18:47:35.947Z,35.80
2023-01-27T18:50:19.522Z,35.70
2023-01-27T18:52:47.373Z,35.70
2023-01-27T18:55:22.472Z,35.70
2023-01-27T18:57:52.301Z,35.80
2023-01-27T19:00:25.880Z,35.80
2023-01-27T19:02:57.247Z,35.80
2023-01-27T19:05:28.270Z,35.80
2023-01-27T19:07:55.360Z,35.80
2023-01-27T19:10:25.639Z,35.80
2023-01-27T19:12:53.563Z,35.90
2023-01-27T19:15:24.067Z,35.80
2023-01-27T19:17:53.772Z,35.90
2023-01-27T19:20:23.409Z,36.00
2023-01-27T19:22:52.106Z,36.00
2023-01-27T19:25:19.451Z,35.90
2023-01-27T19:27:50.049Z,35.80
2023-01-27T19:30:26.153Z,35.80
2023-01-27T19:32:55.278Z,35.80
2023-01-27T19:35:24.199Z,35.70
2023-01-27T19:37:54.167Z,35.80
2023-01-27T19:40:28.584Z,35.80
2023-01-27T19:42:56.342Z,35.80
2023-01-27T19:45:26.154Z,35.80
2023-01-27T19:47:53.191Z,35.80
2023-01-27T19:50:28.067Z,35.90
2023-01-27T19:52:55.336Z,35.90
2023-01-27T19:55:23.027Z,35.90
2023-01-27T19:57:51.647Z,35.90
2023-01-27T20:00:29.389Z,35.90
2023-01-27T20:02:57.273Z,36.00
2023-01-27T20:05:26.354Z,35.90
2023-01-27T20:07:55.473Z,35.90
2023-01-27T20:10:26.716Z,36.00
2023-01-27T20:12:56.714Z,36.00
2023-01-27T20:15:25.718Z,36.10
2023-01-27T20:17:53.476Z,36.10
2023-01-27T20:20:21.801Z,36.10
2023-01-27T20:22:49.200Z,36.10
2023-01-27T20:25:19.015Z,36.10
2023-01-27T20:27:48.986Z,36.20
2023-01-27T20:30:22.022Z,36.20
2023-01-27T20:32:49.139Z,36.20
2023-01-27T20:35:18.403Z,36.20
2023-01-27T20:37:47.688Z,36.10
2023-01-27T20:40:20.831Z,36.10
2023-01-27T20:42:48.663Z,36.20
2023-01-27T20:45:16.669Z,36.20
2023-01-27T20:47:47.881Z,36.10
2023-01-27T20:50:14.909Z,36.20
2023-01-27T20:52:41.937Z,36.10
2023-01-27T20:55:09.758Z,36.10
2023-01-27T20:57:37.004Z,36.10
2023-01-27T21:00:04.680Z,36.10
2023-01-27T21:02:31.828Z,36.20
2023-01-27T21:04:58.903Z,36.20
2023-01-27T21:07:26.464Z,36.20
2023-01-27T21:09:53.678Z,36.10
2023-01-27T21:12:21.866Z,36.20
2023-01-27T21:14:48.923Z,36.20
2023-01-27T21:17:16.519Z,36.20
2023-01-27T21:19:43.628Z,36.20
2023-01-27T21:22:10.718Z,36.20
2023-01-27T21:24:37.772Z,36.20
2023-01-27T21:27:05.052Z,36.30
2023-01-27T21:29:32.303Z,36.20
2023-01-27T21:31:59.608Z,36.30
2023-01-27T21:34:26.784Z,36.30
2023-01-27T21:36:55.987Z,36.30
2023-01-27T21:39:23.995Z,36.30
2023-01-27T21:42:10.900Z,36.30
2023-01-27T21:44:58.285Z,36.30
2023-01-27T21:47:25.389Z,36.30
2023-01-27T21:50:02.001Z,36.30
2023-01-27T21:52:35.396Z,36.30
2023-01-27T21:55:04.498Z,36.30
2023-01-27T21:57:32.271Z,36.20
2023-01-27T21:59:59.318Z,36.30
2023-01-27T22:02:26.460Z,36.30
2023-01-27T22:04:53.651Z,36.30
2023-01-27T22:07:21.003Z,36.30
2023-01-27T22:09:48.121Z,36.40
2023-01-27T22:12:16.520Z,36.40
2023-01-27T22:14:43.975Z,36.40
2023-01-27T22:17:11.214Z,36.30
2023-01-27T22:19:39.321Z,36.40
2023-01-27T22:22:09.804Z,36.30
2023-01-27T22:24:36.685Z,36.30
2023-01-27T22:27:03.974Z,36.30
2023-01-27T22:29:30.984Z,36.30
2023-01-27T22:31:58.056Z,36.30
2023-01-27T22:34:25.158Z,36.30
2023-01-27T22:36:52.352Z,36.30
2023-01-27T22:39:19.757Z,36.30
2023-01-27T22:41:47.827Z,36.40
2023-01-27T22:44:15.344Z,36.40
2023-01-27T22:46:43.083Z,36.40
2023-01-27T22:49:11.188Z,36.40
2023-01-27T22:51:38.803Z,36.40
2023-01-27T22:54:06.073Z,36.40
2023-01-27T22:56:33.471Z,36.40
2023-01-27T22:59:01.388Z,36.30
2023-01-27T23:01:29.036Z,36.30
2023-01-27T23:03:56.056Z,36.70
2023-01-27T23:06:23.115Z,36.90
2023-01-27T23:08:50.153Z,36.30
2023-01-27T23:11:17.187Z,36.30
2023-01-27T23:13:44.261Z,36.30
2023-01-27T23:16:11.290Z,36.30
2023-01-27T23:18:38.337Z,36.30
2023-01-27T23:21:08.336Z,36.30
2023-01-27T23:23:36.267Z,36.20
2023-01-27T23:26:07.385Z,36.30
2023-01-27T23:28:35.094Z,36.20
2023-01-27T23:31:02.332Z,36.20
2023-01-27T23:33:35.249Z,36.20
2023-01-27T23:36:02.340Z,36.20
2023-01-27T23:38:33.053Z,36.20
2023-01-27T23:41:02.528Z,36.20
2023-01-27T23:43:31.167Z,36.20
2023-01-27T23:45:58.607Z,36.20
2023-01-27T23:48:26.254Z,36.30
2023-01-27T23:50:53.282Z,36.30
2023-01-27T23:53:20.671Z,36.30
2023-01-27T23:55:58.530Z,36.30
2023-01-27T23:58:26.724Z,36.30
